sensor_id;sensor_type;location;lat;lon;timestamp;P1;durP1;ratioP1;P2;durP2;ratioP2
11927;SDS011;6023;47.070;15.126;2023-03-31T00:01:01;3.93;;;3.20;;
11927;SDS011;6023;47.070;15.126;2023-03-31T00:03:30;3.67;;;3.30;;
11927;SDS011;6023;47.070;15.126;2023-03-31T00:06:00;5.10;;;3.50;;
11927;SDS011;6023;47.070;15.126;2023-03-31T00:08:30;4.97;;;3.63;;
11927;SDS011;6023;47.070;15.126;2023-03-31T00:11:02;4.00;;;3.17;;
11927;SDS011;6023;47.070;15.126;2023-03-31T00:13:34;4.13;;;3.20;;
11927;SDS011;6023;47.070;15.126;2023-03-31T00:16:03;5.47;;;3.47;;
11927;SDS011;6023;47.070;15.126;2023-03-31T00:18:34;4.17;;;3.57;;
11927;SDS011;6023;47.070;15.126;2023-03-31T00:21:07;4.67;;;3.50;;
11927;SDS011;6023;47.070;15.126;2023-03-31T00:23:40;4.20;;;3.33;;
11927;SDS011;6023;47.070;15.126;2023-03-31T00:26:09;4.23;;;2.90;;
11927;SDS011;6023;47.070;15.126;2023-03-31T00:28:38;4.23;;;3.03;;
11927;SDS011;6023;47.070;15.126;2023-03-31T00:31:07;4.20;;;3.10;;
11927;SDS011;6023;47.070;15.126;2023-03-31T00:33:35;3.33;;;2.80;;
11927;SDS011;6023;47.070;15.126;2023-03-31T00:36:04;3.20;;;2.90;;
11927;SDS011;6023;47.070;15.126;2023-03-31T00:38:33;4.53;;;2.70;;
11927;SDS011;6023;47.070;15.126;2023-03-31T00:41:02;5.00;;;3.10;;
11927;SDS011;6023;47.070;15.126;2023-03-31T00:43:32;4.23;;;2.83;;
11927;SDS011;6023;47.070;15.126;2023-03-31T00:46:05;4.23;;;3.10;;
11927;SDS011;6023;47.070;15.126;2023-03-31T00:48:41;3.93;;;3.00;;
11927;SDS011;6023;47.070;15.126;2023-03-31T00:51:14;4.87;;;3.00;;
11927;SDS011;6023;47.070;15.126;2023-03-31T00:53:43;3.60;;;2.60;;
11927;SDS011;6023;47.070;15.126;2023-03-31T00:56:13;3.73;;;3.03;;
11927;SDS011;6023;47.070;15.126;2023-03-31T00:58:42;3.33;;;3.00;;
11927;SDS011;6023;47.070;15.126;2023-03-31T01:01:15;3.83;;;3.30;;
11927;SDS011;6023;47.070;15.126;2023-03-31T01:03:45;4.60;;;3.27;;
11927;SDS011;6023;47.070;15.126;2023-03-31T01:06:15;3.33;;;2.80;;
11927;SDS011;6023;47.070;15.126;2023-03-31T01:08:45;3.93;;;3.07;;
11927;SDS011;6023;47.070;15.126;2023-03-31T01:11:16;3.97;;;3.00;;
11927;SDS011;6023;47.070;15.126;2023-03-31T01:13:46;3.63;;;2.93;;
11927;SDS011;6023;47.070;15.126;2023-03-31T01:16:18;3.00;;;2.53;;
11927;SDS011;6023;47.070;15.126;2023-03-31T01:18:47;3.53;;;2.90;;
11927;SDS011;6023;47.070;15.126;2023-03-31T01:24:30;3.00;;;2.70;;
11927;SDS011;6023;47.070;15.126;2023-03-31T01:27:39;4.67;;;2.50;;
11927;SDS011;6023;47.070;15.126;2023-03-31T01:33:19;2.80;;;2.50;;
11927;SDS011;6023;47.070;15.126;2023-03-31T01:36:21;3.60;;;2.60;;
11927;SDS011;6023;47.070;15.126;2023-03-31T01:42:26;2.50;;;2.30;;
11927;SDS011;6023;47.070;15.126;2023-03-31T01:45:00;2.80;;;2.60;;
11927;SDS011;6023;47.070;15.126;2023-03-31T01:47:32;5.10;;;3.07;;
11927;SDS011;6023;47.070;15.126;2023-03-31T01:50:07;2.60;;;2.40;;
11927;SDS011;6023;47.070;15.126;2023-03-31T01:52:42;3.67;;;2.80;;
11927;SDS011;6023;47.070;15.126;2023-03-31T01:55:17;4.20;;;2.80;;
11927;SDS011;6023;47.070;15.126;2023-03-31T01:57:48;3.07;;;2.77;;
11927;SDS011;6023;47.070;15.126;2023-03-31T02:00:20;3.70;;;2.53;;
11927;SDS011;6023;47.070;15.126;2023-03-31T02:02:55;3.50;;;2.90;;
11927;SDS011;6023;47.070;15.126;2023-03-31T02:05:26;4.13;;;2.70;;
11927;SDS011;6023;47.070;15.126;2023-03-31T02:08:01;3.27;;;2.80;;
11927;SDS011;6023;47.070;15.126;2023-03-31T02:10:33;3.03;;;2.70;;
11927;SDS011;6023;47.070;15.126;2023-03-31T02:13:02;3.67;;;2.83;;
11927;SDS011;6023;47.070;15.126;2023-03-31T02:15:33;2.57;;;2.37;;
11927;SDS011;6023;47.070;15.126;2023-03-31T02:18:05;3.13;;;2.50;;
11927;SDS011;6023;47.070;15.126;2023-03-31T02:20:37;3.93;;;3.13;;
11927;SDS011;6023;47.070;15.126;2023-03-31T02:23:08;4.77;;;4.00;;
11927;SDS011;6023;47.070;15.126;2023-03-31T02:25:41;4.40;;;3.40;;
11927;SDS011;6023;47.070;15.126;2023-03-31T02:28:15;4.70;;;3.17;;
11927;SDS011;6023;47.070;15.126;2023-03-31T02:30:48;4.73;;;2.97;;
11927;SDS011;6023;47.070;15.126;2023-03-31T02:33:19;4.57;;;2.87;;
11927;SDS011;6023;47.070;15.126;2023-03-31T02:35:48;3.80;;;2.60;;
11927;SDS011;6023;47.070;15.126;2023-03-31T02:38:17;3.30;;;3.00;;
11927;SDS011;6023;47.070;15.126;2023-03-31T02:40:47;3.63;;;2.40;;
11927;SDS011;6023;47.070;15.126;2023-03-31T02:43:16;3.03;;;2.73;;
11927;SDS011;6023;47.070;15.126;2023-03-31T02:45:45;2.97;;;2.47;;
11927;SDS011;6023;47.070;15.126;2023-03-31T02:48:16;3.03;;;2.70;;
11927;SDS011;6023;47.070;15.126;2023-03-31T02:56:53;3.13;;;2.80;;
11927;SDS011;6023;47.070;15.126;2023-03-31T02:59:37;3.03;;;2.53;;
11927;SDS011;6023;47.070;15.126;2023-03-31T03:02:12;2.80;;;2.47;;
11927;SDS011;6023;47.070;15.126;2023-03-31T03:07:46;4.13;;;2.67;;
11927;SDS011;6023;47.070;15.126;2023-03-31T03:10:19;3.60;;;3.00;;
11927;SDS011;6023;47.070;15.126;2023-03-31T03:12:56;3.47;;;2.80;;
11927;SDS011;6023;47.070;15.126;2023-03-31T03:15:29;3.87;;;3.30;;
11927;SDS011;6023;47.070;15.126;2023-03-31T03:18:00;4.13;;;3.43;;
11927;SDS011;6023;47.070;15.126;2023-03-31T03:20:29;4.93;;;4.07;;
11927;SDS011;6023;47.070;15.126;2023-03-31T03:22:59;5.23;;;4.33;;
11927;SDS011;6023;47.070;15.126;2023-03-31T03:25:28;5.77;;;3.93;;
11927;SDS011;6023;47.070;15.126;2023-03-31T03:27:58;6.00;;;4.40;;
11927;SDS011;6023;47.070;15.126;2023-03-31T03:30:26;5.33;;;4.10;;
11927;SDS011;6023;47.070;15.126;2023-03-31T03:32:55;8.20;;;5.90;;
11927;SDS011;6023;47.070;15.126;2023-03-31T03:35:24;5.33;;;4.17;;
11927;SDS011;6023;47.070;15.126;2023-03-31T03:37:53;5.27;;;4.33;;
11927;SDS011;6023;47.070;15.126;2023-03-31T03:40:21;9.20;;;5.93;;
11927;SDS011;6023;47.070;15.126;2023-03-31T03:42:50;7.47;;;5.40;;
11927;SDS011;6023;47.070;15.126;2023-03-31T03:45:20;12.50;;;7.37;;
11927;SDS011;6023;47.070;15.126;2023-03-31T03:47:48;9.50;;;7.20;;
11927;SDS011;6023;47.070;15.126;2023-03-31T03:50:16;14.27;;;10.20;;
11927;SDS011;6023;47.070;15.126;2023-03-31T03:52:45;15.20;;;10.57;;
11927;SDS011;6023;47.070;15.126;2023-03-31T03:55:14;10.23;;;7.43;;
11927;SDS011;6023;47.070;15.126;2023-03-31T03:57:43;8.80;;;6.70;;
11927;SDS011;6023;47.070;15.126;2023-03-31T04:00:12;7.03;;;4.73;;
11927;SDS011;6023;47.070;15.126;2023-03-31T04:02:42;5.90;;;4.17;;
11927;SDS011;6023;47.070;15.126;2023-03-31T04:05:11;5.40;;;3.87;;
11927;SDS011;6023;47.070;15.126;2023-03-31T04:07:39;3.97;;;3.00;;
11927;SDS011;6023;47.070;15.126;2023-03-31T04:10:08;4.57;;;3.60;;
11927;SDS011;6023;47.070;15.126;2023-03-31T04:12:36;5.87;;;3.97;;
11927;SDS011;6023;47.070;15.126;2023-03-31T04:15:05;8.30;;;4.50;;
11927;SDS011;6023;47.070;15.126;2023-03-31T04:17:35;8.67;;;5.63;;
11927;SDS011;6023;47.070;15.126;2023-03-31T04:20:05;9.23;;;6.87;;
11927;SDS011;6023;47.070;15.126;2023-03-31T04:22:36;10.53;;;7.37;;
11927;SDS011;6023;47.070;15.126;2023-03-31T04:25:08;7.23;;;4.67;;
11927;SDS011;6023;47.070;15.126;2023-03-31T04:27:42;5.53;;;4.10;;
11927;SDS011;6023;47.070;15.126;2023-03-31T04:30:13;3.90;;;3.20;;
11927;SDS011;6023;47.070;15.126;2023-03-31T04:32:49;5.63;;;3.60;;
11927;SDS011;6023;47.070;15.126;2023-03-31T04:35:20;3.87;;;3.27;;
11927;SDS011;6023;47.070;15.126;2023-03-31T04:37:50;7.33;;;3.70;;
11927;SDS011;6023;47.070;15.126;2023-03-31T04:40:24;6.30;;;3.60;;
11927;SDS011;6023;47.070;15.126;2023-03-31T04:42:53;6.43;;;3.70;;
11927;SDS011;6023;47.070;15.126;2023-03-31T04:45:21;4.93;;;3.63;;
11927;SDS011;6023;47.070;15.126;2023-03-31T04:47:50;5.10;;;3.87;;
11927;SDS011;6023;47.070;15.126;2023-03-31T04:50:20;5.77;;;3.90;;
11927;SDS011;6023;47.070;15.126;2023-03-31T04:52:48;6.13;;;3.87;;
11927;SDS011;6023;47.070;15.126;2023-03-31T04:55:17;5.80;;;3.83;;
11927;SDS011;6023;47.070;15.126;2023-03-31T04:57:46;4.00;;;3.30;;
11927;SDS011;6023;47.070;15.126;2023-03-31T05:00:15;15.97;;;12.40;;
11927;SDS011;6023;47.070;15.126;2023-03-31T05:02:44;10.20;;;8.07;;
11927;SDS011;6023;47.070;15.126;2023-03-31T05:05:12;6.13;;;4.70;;
11927;SDS011;6023;47.070;15.126;2023-03-31T05:07:42;5.73;;;3.90;;
11927;SDS011;6023;47.070;15.126;2023-03-31T05:10:11;3.90;;;3.40;;
11927;SDS011;6023;47.070;15.126;2023-03-31T05:12:40;4.67;;;3.50;;
11927;SDS011;6023;47.070;15.126;2023-03-31T05:15:09;3.90;;;3.10;;
11927;SDS011;6023;47.070;15.126;2023-03-31T05:17:38;4.40;;;3.57;;
11927;SDS011;6023;47.070;15.126;2023-03-31T05:20:06;5.77;;;3.97;;
11927;SDS011;6023;47.070;15.126;2023-03-31T05:22:36;6.07;;;4.20;;
11927;SDS011;6023;47.070;15.126;2023-03-31T05:25:11;6.93;;;4.20;;
11927;SDS011;6023;47.070;15.126;2023-03-31T05:27:45;6.47;;;5.07;;
11927;SDS011;6023;47.070;15.126;2023-03-31T05:30:14;11.60;;;6.80;;
11927;SDS011;6023;47.070;15.126;2023-03-31T05:32:43;6.07;;;4.23;;
11927;SDS011;6023;47.070;15.126;2023-03-31T05:35:12;14.23;;;9.03;;
11927;SDS011;6023;47.070;15.126;2023-03-31T05:37:41;7.03;;;5.17;;
11927;SDS011;6023;47.070;15.126;2023-03-31T05:40:11;13.27;;;9.93;;
11927;SDS011;6023;47.070;15.126;2023-03-31T05:42:40;5.93;;;4.50;;
11927;SDS011;6023;47.070;15.126;2023-03-31T05:45:08;11.20;;;6.50;;
11927;SDS011;6023;47.070;15.126;2023-03-31T05:47:38;10.80;;;7.83;;
11927;SDS011;6023;47.070;15.126;2023-03-31T05:50:07;8.93;;;6.00;;
11927;SDS011;6023;47.070;15.126;2023-03-31T05:52:39;7.50;;;5.00;;
11927;SDS011;6023;47.070;15.126;2023-03-31T05:55:08;7.17;;;5.03;;
11927;SDS011;6023;47.070;15.126;2023-03-31T05:57:38;7.30;;;4.73;;
11927;SDS011;6023;47.070;15.126;2023-03-31T06:00:07;6.63;;;4.63;;
11927;SDS011;6023;47.070;15.126;2023-03-31T06:02:37;7.37;;;4.90;;
11927;SDS011;6023;47.070;15.126;2023-03-31T06:05:07;6.70;;;4.50;;
11927;SDS011;6023;47.070;15.126;2023-03-31T06:07:35;8.60;;;5.10;;
11927;SDS011;6023;47.070;15.126;2023-03-31T06:10:04;6.97;;;4.20;;
11927;SDS011;6023;47.070;15.126;2023-03-31T06:12:37;7.73;;;5.00;;
11927;SDS011;6023;47.070;15.126;2023-03-31T06:15:06;5.67;;;4.47;;
11927;SDS011;6023;47.070;15.126;2023-03-31T06:17:35;6.83;;;4.60;;
11927;SDS011;6023;47.070;15.126;2023-03-31T06:20:05;8.33;;;4.20;;
11927;SDS011;6023;47.070;15.126;2023-03-31T06:22:52;4.87;;;4.07;;
11927;SDS011;6023;47.070;15.126;2023-03-31T06:25:21;4.90;;;3.80;;
11927;SDS011;6023;47.070;15.126;2023-03-31T06:27:51;5.37;;;3.53;;
11927;SDS011;6023;47.070;15.126;2023-03-31T06:30:19;7.23;;;4.53;;
11927;SDS011;6023;47.070;15.126;2023-03-31T06:32:48;6.07;;;4.10;;
11927;SDS011;6023;47.070;15.126;2023-03-31T06:35:16;4.80;;;3.20;;
11927;SDS011;6023;47.070;15.126;2023-03-31T06:37:45;5.60;;;3.27;;
11927;SDS011;6023;47.070;15.126;2023-03-31T06:40:13;5.27;;;3.40;;
11927;SDS011;6023;47.070;15.126;2023-03-31T06:42:42;4.80;;;3.23;;
11927;SDS011;6023;47.070;15.126;2023-03-31T06:45:12;4.73;;;3.40;;
11927;SDS011;6023;47.070;15.126;2023-03-31T06:47:40;4.23;;;3.40;;
11927;SDS011;6023;47.070;15.126;2023-03-31T06:50:09;4.30;;;3.30;;
11927;SDS011;6023;47.070;15.126;2023-03-31T06:52:37;5.27;;;3.50;;
11927;SDS011;6023;47.070;15.126;2023-03-31T06:55:06;7.93;;;4.40;;
11927;SDS011;6023;47.070;15.126;2023-03-31T06:57:36;6.00;;;3.90;;
11927;SDS011;6023;47.070;15.126;2023-03-31T07:00:05;6.53;;;3.60;;
11927;SDS011;6023;47.070;15.126;2023-03-31T07:02:35;4.90;;;3.70;;
11927;SDS011;6023;47.070;15.126;2023-03-31T07:05:05;7.50;;;3.80;;
11927;SDS011;6023;47.070;15.126;2023-03-31T07:07:34;7.60;;;3.93;;
11927;SDS011;6023;47.070;15.126;2023-03-31T07:10:02;7.33;;;3.77;;
11927;SDS011;6023;47.070;15.126;2023-03-31T07:12:31;4.70;;;3.20;;
11927;SDS011;6023;47.070;15.126;2023-03-31T07:15:00;5.23;;;3.20;;
11927;SDS011;6023;47.070;15.126;2023-03-31T07:17:29;7.20;;;3.50;;
11927;SDS011;6023;47.070;15.126;2023-03-31T07:19:58;4.97;;;3.33;;
11927;SDS011;6023;47.070;15.126;2023-03-31T07:22:27;4.90;;;3.40;;
11927;SDS011;6023;47.070;15.126;2023-03-31T07:24:55;4.53;;;3.30;;
11927;SDS011;6023;47.070;15.126;2023-03-31T07:27:24;5.63;;;3.33;;
11927;SDS011;6023;47.070;15.126;2023-03-31T07:29:52;5.17;;;3.30;;
11927;SDS011;6023;47.070;15.126;2023-03-31T07:32:21;5.00;;;3.30;;
11927;SDS011;6023;47.070;15.126;2023-03-31T07:34:52;5.67;;;3.90;;
11927;SDS011;6023;47.070;15.126;2023-03-31T07:37:22;7.27;;;4.57;;
11927;SDS011;6023;47.070;15.126;2023-03-31T07:39:51;9.80;;;5.10;;
11927;SDS011;6023;47.070;15.126;2023-03-31T07:42:19;8.07;;;4.67;;
11927;SDS011;6023;47.070;15.126;2023-03-31T07:44:48;7.97;;;4.30;;
11927;SDS011;6023;47.070;15.126;2023-03-31T07:47:16;3.80;;;2.70;;
11927;SDS011;6023;47.070;15.126;2023-03-31T07:49:45;4.80;;;2.23;;
11927;SDS011;6023;47.070;15.126;2023-03-31T07:52:13;1.90;;;1.80;;
11927;SDS011;6023;47.070;15.126;2023-03-31T07:54:44;2.27;;;1.90;;
11927;SDS011;6023;47.070;15.126;2023-03-31T07:57:14;1.63;;;1.50;;
11927;SDS011;6023;47.070;15.126;2023-03-31T07:59:45;2.67;;;1.80;;
11927;SDS011;6023;47.070;15.126;2023-03-31T08:02:14;2.77;;;1.80;;
11927;SDS011;6023;47.070;15.126;2023-03-31T08:04:43;2.47;;;1.60;;
11927;SDS011;6023;47.070;15.126;2023-03-31T08:07:13;2.23;;;1.70;;
11927;SDS011;6023;47.070;15.126;2023-03-31T08:09:44;1.53;;;1.43;;
11927;SDS011;6023;47.070;15.126;2023-03-31T08:12:13;1.93;;;1.63;;
11927;SDS011;6023;47.070;15.126;2023-03-31T08:14:42;1.90;;;1.80;;
11927;SDS011;6023;47.070;15.126;2023-03-31T08:17:12;1.70;;;1.60;;
11927;SDS011;6023;47.070;15.126;2023-03-31T08:19:40;1.50;;;1.40;;
11927;SDS011;6023;47.070;15.126;2023-03-31T08:22:08;2.20;;;1.53;;
11927;SDS011;6023;47.070;15.126;2023-03-31T08:24:37;1.50;;;1.40;;
11927;SDS011;6023;47.070;15.126;2023-03-31T08:27:07;1.60;;;1.50;;
11927;SDS011;6023;47.070;15.126;2023-03-31T08:29:38;1.77;;;1.67;;
11927;SDS011;6023;47.070;15.126;2023-03-31T08:32:07;1.97;;;1.70;;
11927;SDS011;6023;47.070;15.126;2023-03-31T08:34:36;1.73;;;1.60;;
11927;SDS011;6023;47.070;15.126;2023-03-31T08:37:08;1.60;;;1.50;;
11927;SDS011;6023;47.070;15.126;2023-03-31T08:39:36;2.20;;;1.67;;
11927;SDS011;6023;47.070;15.126;2023-03-31T08:42:08;1.80;;;1.70;;
11927;SDS011;6023;47.070;15.126;2023-03-31T08:44:43;2.17;;;1.47;;
11927;SDS011;6023;47.070;15.126;2023-03-31T08:47:14;2.30;;;1.60;;
11927;SDS011;6023;47.070;15.126;2023-03-31T08:49:46;1.37;;;1.27;;
11927;SDS011;6023;47.070;15.126;2023-03-31T08:52:21;1.67;;;1.30;;
11927;SDS011;6023;47.070;15.126;2023-03-31T08:54:54;2.10;;;1.63;;
11927;SDS011;6023;47.070;15.126;2023-03-31T08:57:27;1.63;;;1.30;;
11927;SDS011;6023;47.070;15.126;2023-03-31T08:59:59;1.53;;;1.40;;
11927;SDS011;6023;47.070;15.126;2023-03-31T09:02:33;1.37;;;1.30;;
11927;SDS011;6023;47.070;15.126;2023-03-31T09:05:19;1.50;;;1.40;;
11927;SDS011;6023;47.070;15.126;2023-03-31T09:07:57;1.50;;;1.40;;
11927;SDS011;6023;47.070;15.126;2023-03-31T09:10:34;1.33;;;1.30;;
11927;SDS011;6023;47.070;15.126;2023-03-31T09:13:13;1.50;;;1.40;;
11927;SDS011;6023;47.070;15.126;2023-03-31T09:15:50;1.43;;;1.33;;
11927;SDS011;6023;47.070;15.126;2023-03-31T09:18:24;2.83;;;1.50;;
11927;SDS011;6023;47.070;15.126;2023-03-31T09:20:57;1.50;;;1.40;;
11927;SDS011;6023;47.070;15.126;2023-03-31T09:23:32;1.57;;;1.47;;
11927;SDS011;6023;47.070;15.126;2023-03-31T09:26:03;4.20;;;1.90;;
11927;SDS011;6023;47.070;15.126;2023-03-31T09:28:35;2.70;;;1.73;;
11927;SDS011;6023;47.070;15.126;2023-03-31T09:31:07;1.60;;;1.50;;
11927;SDS011;6023;47.070;15.126;2023-03-31T09:33:41;1.60;;;1.50;;
11927;SDS011;6023;47.070;15.126;2023-03-31T09:36:13;2.43;;;2.00;;
11927;SDS011;6023;47.070;15.126;2023-03-31T09:38:44;2.83;;;1.97;;
11927;SDS011;6023;47.070;15.126;2023-03-31T09:41:14;2.27;;;1.80;;
11927;SDS011;6023;47.070;15.126;2023-03-31T09:43:46;2.00;;;1.80;;
11927;SDS011;6023;47.070;15.126;2023-03-31T09:46:16;2.10;;;1.70;;
11927;SDS011;6023;47.070;15.126;2023-03-31T09:48:49;1.80;;;1.70;;
11927;SDS011;6023;47.070;15.126;2023-03-31T09:51:22;1.90;;;1.70;;
11927;SDS011;6023;47.070;15.126;2023-03-31T09:53:54;1.70;;;1.60;;
11927;SDS011;6023;47.070;15.126;2023-03-31T09:56:32;1.70;;;1.60;;
11927;SDS011;6023;47.070;15.126;2023-03-31T09:59:14;1.97;;;1.87;;
11927;SDS011;6023;47.070;15.126;2023-03-31T10:01:44;1.93;;;1.80;;
11927;SDS011;6023;47.070;15.126;2023-03-31T10:04:16;2.50;;;1.80;;
11927;SDS011;6023;47.070;15.126;2023-03-31T10:06:48;1.87;;;1.70;;
11927;SDS011;6023;47.070;15.126;2023-03-31T10:09:18;2.23;;;1.90;;
11927;SDS011;6023;47.070;15.126;2023-03-31T10:11:52;2.63;;;1.63;;
11927;SDS011;6023;47.070;15.126;2023-03-31T10:14:25;2.00;;;1.80;;
11927;SDS011;6023;47.070;15.126;2023-03-31T10:16:55;2.10;;;1.90;;
11927;SDS011;6023;47.070;15.126;2023-03-31T10:19:25;2.27;;;1.70;;
11927;SDS011;6023;47.070;15.126;2023-03-31T10:21:55;2.10;;;1.80;;
11927;SDS011;6023;47.070;15.126;2023-03-31T10:24:25;2.23;;;1.70;;
11927;SDS011;6023;47.070;15.126;2023-03-31T10:26:54;2.07;;;1.80;;
11927;SDS011;6023;47.070;15.126;2023-03-31T10:29:27;3.97;;;1.93;;
11927;SDS011;6023;47.070;15.126;2023-03-31T10:32:01;2.07;;;1.80;;
11927;SDS011;6023;47.070;15.126;2023-03-31T10:34:30;2.33;;;1.70;;
11927;SDS011;6023;47.070;15.126;2023-03-31T10:36:59;2.13;;;1.93;;
11927;SDS011;6023;47.070;15.126;2023-03-31T10:39:31;2.00;;;1.70;;
11927;SDS011;6023;47.070;15.126;2023-03-31T10:41:59;3.20;;;2.10;;
11927;SDS011;6023;47.070;15.126;2023-03-31T10:44:33;3.20;;;1.97;;
11927;SDS011;6023;47.070;15.126;2023-03-31T10:47:04;1.87;;;1.70;;
11927;SDS011;6023;47.070;15.126;2023-03-31T10:49:36;2.10;;;2.00;;
11927;SDS011;6023;47.070;15.126;2023-03-31T10:52:13;2.27;;;2.07;;
11927;SDS011;6023;47.070;15.126;2023-03-31T10:54:48;2.43;;;2.00;;
11927;SDS011;6023;47.070;15.126;2023-03-31T10:57:18;3.37;;;2.40;;
11927;SDS011;6023;47.070;15.126;2023-03-31T10:59:57;9.13;;;8.07;;
11927;SDS011;6023;47.070;15.126;2023-03-31T11:02:42;2.10;;;1.90;;
11927;SDS011;6023;47.070;15.126;2023-03-31T11:05:40;2.27;;;2.07;;
11927;SDS011;6023;47.070;15.126;2023-03-31T11:08:14;3.37;;;2.20;;
11927;SDS011;6023;47.070;15.126;2023-03-31T11:10:55;3.07;;;1.90;;
11927;SDS011;6023;47.070;15.126;2023-03-31T11:13:43;2.00;;;1.80;;
11927;SDS011;6023;47.070;15.126;2023-03-31T11:16:19;4.70;;;2.07;;
11927;SDS011;6023;47.070;15.126;2023-03-31T11:18:58;2.20;;;2.00;;
11927;SDS011;6023;47.070;15.126;2023-03-31T11:21:35;3.67;;;2.97;;
11927;SDS011;6023;47.070;15.126;2023-03-31T11:24:13;6.30;;;5.10;;
11927;SDS011;6023;47.070;15.126;2023-03-31T11:26:49;2.93;;;2.10;;
11927;SDS011;6023;47.070;15.126;2023-03-31T11:29:24;2.23;;;1.93;;
11927;SDS011;6023;47.070;15.126;2023-03-31T11:32:04;2.67;;;1.83;;
11927;SDS011;6023;47.070;15.126;2023-03-31T11:34:54;2.40;;;2.00;;
11927;SDS011;6023;47.070;15.126;2023-03-31T11:37:41;3.87;;;2.03;;
11927;SDS011;6023;47.070;15.126;2023-03-31T11:40:25;2.00;;;1.90;;
11927;SDS011;6023;47.070;15.126;2023-03-31T11:43:02;2.10;;;1.90;;
11927;SDS011;6023;47.070;15.126;2023-03-31T11:45:35;2.67;;;2.20;;
11927;SDS011;6023;47.070;15.126;2023-03-31T11:48:09;3.37;;;2.07;;
11927;SDS011;6023;47.070;15.126;2023-03-31T11:50:42;2.80;;;2.00;;
11927;SDS011;6023;47.070;15.126;2023-03-31T11:53:14;2.83;;;2.30;;
11927;SDS011;6023;47.070;15.126;2023-03-31T11:55:45;6.57;;;5.60;;
11927;SDS011;6023;47.070;15.126;2023-03-31T11:58:16;2.10;;;1.90;;
11927;SDS011;6023;47.070;15.126;2023-03-31T12:00:46;2.13;;;1.90;;
11927;SDS011;6023;47.070;15.126;2023-03-31T12:03:20;3.67;;;2.07;;
11927;SDS011;6023;47.070;15.126;2023-03-31T12:05:52;1.93;;;1.70;;
11927;SDS011;6023;47.070;15.126;2023-03-31T12:08:24;2.00;;;1.90;;
11927;SDS011;6023;47.070;15.126;2023-03-31T12:10:57;3.20;;;2.20;;
11927;SDS011;6023;47.070;15.126;2023-03-31T12:13:33;2.57;;;1.90;;
11927;SDS011;6023;47.070;15.126;2023-03-31T12:16:08;1.90;;;1.80;;
11927;SDS011;6023;47.070;15.126;2023-03-31T12:18:41;2.90;;;1.73;;
11927;SDS011;6023;47.070;15.126;2023-03-31T12:21:13;4.23;;;2.20;;
11927;SDS011;6023;47.070;15.126;2023-03-31T12:23:43;2.83;;;2.10;;
11927;SDS011;6023;47.070;15.126;2023-03-31T12:26:14;3.57;;;2.00;;
11927;SDS011;6023;47.070;15.126;2023-03-31T12:28:50;2.17;;;1.77;;
11927;SDS011;6023;47.070;15.126;2023-03-31T12:31:22;2.30;;;1.80;;
11927;SDS011;6023;47.070;15.126;2023-03-31T12:33:54;2.97;;;1.87;;
11927;SDS011;6023;47.070;15.126;2023-03-31T12:36:29;3.23;;;2.00;;
11927;SDS011;6023;47.070;15.126;2023-03-31T12:39:10;2.33;;;2.00;;
11927;SDS011;6023;47.070;15.126;2023-03-31T12:41:56;2.47;;;2.20;;
11927;SDS011;6023;47.070;15.126;2023-03-31T12:44:34;2.77;;;1.97;;
11927;SDS011;6023;47.070;15.126;2023-03-31T12:50:15;3.97;;;2.23;;
11927;SDS011;6023;47.070;15.126;2023-03-31T12:53:03;3.00;;;1.93;;
11927;SDS011;6023;47.070;15.126;2023-03-31T12:55:36;2.83;;;2.00;;
11927;SDS011;6023;47.070;15.126;2023-03-31T13:01:07;3.57;;;2.13;;
11927;SDS011;6023;47.070;15.126;2023-03-31T13:03:41;2.87;;;2.10;;
11927;SDS011;6023;47.070;15.126;2023-03-31T13:12:18;4.57;;;1.80;;
11927;SDS011;6023;47.070;15.126;2023-03-31T13:14:49;2.90;;;1.60;;
11927;SDS011;6023;47.070;15.126;2023-03-31T13:17:21;2.30;;;1.80;;
11927;SDS011;6023;47.070;15.126;2023-03-31T13:19:52;2.23;;;1.70;;
11927;SDS011;6023;47.070;15.126;2023-03-31T13:22:29;4.33;;;1.80;;
11927;SDS011;6023;47.070;15.126;2023-03-31T13:28:15;3.40;;;2.17;;
11927;SDS011;6023;47.070;15.126;2023-03-31T13:30:53;2.57;;;1.80;;
11927;SDS011;6023;47.070;15.126;2023-03-31T13:33:24;2.70;;;2.00;;
11927;SDS011;6023;47.070;15.126;2023-03-31T13:36:03;3.97;;;2.20;;
11927;SDS011;6023;47.070;15.126;2023-03-31T13:38:52;2.90;;;1.83;;
11927;SDS011;6023;47.070;15.126;2023-03-31T13:41:34;3.27;;;2.67;;
11927;SDS011;6023;47.070;15.126;2023-03-31T13:44:23;3.27;;;2.40;;
11927;SDS011;6023;47.070;15.126;2023-03-31T13:47:36;2.90;;;2.00;;
11927;SDS011;6023;47.070;15.126;2023-03-31T13:50:48;3.63;;;2.10;;
11927;SDS011;6023;47.070;15.126;2023-03-31T13:53:36;3.30;;;2.13;;
11927;SDS011;6023;47.070;15.126;2023-03-31T13:56:25;2.67;;;2.13;;
11927;SDS011;6023;47.070;15.126;2023-03-31T13:59:17;2.17;;;1.83;;
11927;SDS011;6023;47.070;15.126;2023-03-31T14:02:13;3.13;;;2.00;;
11927;SDS011;6023;47.070;15.126;2023-03-31T14:05:02;3.20;;;2.07;;
11927;SDS011;6023;47.070;15.126;2023-03-31T14:07:36;3.33;;;2.43;;
11927;SDS011;6023;47.070;15.126;2023-03-31T14:10:09;2.73;;;2.20;;
11927;SDS011;6023;47.070;15.126;2023-03-31T14:12:50;4.17;;;2.10;;
11927;SDS011;6023;47.070;15.126;2023-03-31T14:15:20;3.00;;;2.20;;
11927;SDS011;6023;47.070;15.126;2023-03-31T14:17:49;2.83;;;2.10;;
11927;SDS011;6023;47.070;15.126;2023-03-31T14:20:28;2.50;;;2.00;;
11927;SDS011;6023;47.070;15.126;2023-03-31T14:23:10;2.13;;;1.90;;
11927;SDS011;6023;47.070;15.126;2023-03-31T14:25:47;2.77;;;2.27;;
11927;SDS011;6023;47.070;15.126;2023-03-31T14:28:21;4.13;;;2.00;;
11927;SDS011;6023;47.070;15.126;2023-03-31T14:31:02;2.97;;;2.30;;
11927;SDS011;6023;47.070;15.126;2023-03-31T14:33:41;2.37;;;2.17;;
11927;SDS011;6023;47.070;15.126;2023-03-31T14:36:15;4.93;;;2.30;;
11927;SDS011;6023;47.070;15.126;2023-03-31T14:38:47;2.57;;;2.33;;
11927;SDS011;6023;47.070;15.126;2023-03-31T14:41:17;2.40;;;2.20;;
11927;SDS011;6023;47.070;15.126;2023-03-31T14:43:56;2.67;;;2.13;;
11927;SDS011;6023;47.070;15.126;2023-03-31T14:46:30;2.43;;;2.10;;
11927;SDS011;6023;47.070;15.126;2023-03-31T14:49:04;3.53;;;2.50;;
11927;SDS011;6023;47.070;15.126;2023-03-31T14:51:33;2.70;;;2.20;;
11927;SDS011;6023;47.070;15.126;2023-03-31T14:54:02;2.47;;;2.17;;
11927;SDS011;6023;47.070;15.126;2023-03-31T14:56:32;4.83;;;2.30;;
11927;SDS011;6023;47.070;15.126;2023-03-31T14:59:03;2.53;;;2.10;;
11927;SDS011;6023;47.070;15.126;2023-03-31T15:01:34;3.90;;;2.27;;
11927;SDS011;6023;47.070;15.126;2023-03-31T15:04:05;3.83;;;2.20;;
11927;SDS011;6023;47.070;15.126;2023-03-31T15:06:35;4.03;;;2.10;;
11927;SDS011;6023;47.070;15.126;2023-03-31T15:09:05;3.97;;;2.10;;
11927;SDS011;6023;47.070;15.126;2023-03-31T15:11:34;3.87;;;2.23;;
11927;SDS011;6023;47.070;15.126;2023-03-31T15:14:02;2.97;;;2.10;;
11927;SDS011;6023;47.070;15.126;2023-03-31T15:16:35;2.83;;;2.37;;
11927;SDS011;6023;47.070;15.126;2023-03-31T15:19:13;3.07;;;2.30;;
11927;SDS011;6023;47.070;15.126;2023-03-31T15:21:42;4.07;;;2.40;;
11927;SDS011;6023;47.070;15.126;2023-03-31T15:24:12;3.40;;;2.40;;
11927;SDS011;6023;47.070;15.126;2023-03-31T15:26:42;2.90;;;2.50;;
11927;SDS011;6023;47.070;15.126;2023-03-31T15:29:15;4.17;;;3.00;;
11927;SDS011;6023;47.070;15.126;2023-03-31T15:31:45;2.57;;;2.20;;
11927;SDS011;6023;47.070;15.126;2023-03-31T15:34:18;2.47;;;2.27;;
11927;SDS011;6023;47.070;15.126;2023-03-31T15:36:49;4.53;;;2.50;;
11927;SDS011;6023;47.070;15.126;2023-03-31T15:39:18;4.60;;;2.40;;
11927;SDS011;6023;47.070;15.126;2023-03-31T15:41:47;2.53;;;2.10;;
11927;SDS011;6023;47.070;15.126;2023-03-31T15:44:26;3.43;;;2.30;;
11927;SDS011;6023;47.070;15.126;2023-03-31T15:47:00;3.07;;;2.40;;
11927;SDS011;6023;47.070;15.126;2023-03-31T15:49:33;3.23;;;2.37;;
11927;SDS011;6023;47.070;15.126;2023-03-31T15:52:02;3.20;;;2.50;;
11927;SDS011;6023;47.070;15.126;2023-03-31T15:54:32;2.70;;;2.20;;